createdAt,value
2023-02-04T14:55:40.677Z,48.37
2023-02-04T14:58:27.937Z,47.77
2023-02-04T15:01:14.677Z,47.52
2023-02-04T15:04:00.711Z,47.95
2023-02-04T15:06:46.921Z,47.63
2023-02-04T15:09:33.161Z,48.06
2023-02-04T15:12:19.147Z,47.71
2023-02-04T15:15:06.032Z,47.40
2023-02-04T15:17:52.356Z,47.36
2023-02-04T15:20:38.615Z,47.22
2023-02-04T15:23:24.701Z,47.45
2023-02-04T15:26:10.689Z,47.00
2023-02-04T15:28:56.766Z,47.52
2023-02-04T15:31:42.598Z,47.38
2023-02-04T15:34:28.557Z,47.26
2023-02-04T15:37:14.358Z,47.26
2023-02-04T15:40:00.913Z,47.03
2023-02-04T15:42:47.200Z,47.15
2023-02-04T15:45:33.025Z,46.60
2023-02-04T15:48:20.223Z,46.52
2023-02-04T15:51:06.234Z,46.82
2023-02-04T15:53:52.111Z,46.50
2023-02-04T15:56:39.194Z,46.72
2023-02-04T15:59:24.990Z,47.02
2023-02-04T16:02:11.519Z,46.67
2023-02-04T16:04:58.598Z,46.93
2023-02-04T16:07:44.275Z,47.39
2023-02-04T16:10:30.404Z,47.38
2023-02-04T16:13:16.800Z,47.52
2023-02-04T16:16:03.008Z,47.70
2023-02-04T16:18:48.756Z,47.46
2023-02-04T16:21:34.670Z,48.03
2023-02-04T16:24:21.305Z,47.38
2023-02-04T16:27:07.492Z,47.75
2023-02-04T16:29:56.479Z,47.62
2023-02-04T16:32:42.584Z,47.67
2023-02-04T16:35:28.925Z,47.95
2023-02-04T16:38:18.526Z,47.71
2023-02-04T16:41:05.502Z,47.59
2023-02-04T16:43:52.177Z,47.76
2023-02-04T16:46:38.317Z,48.11
2023-02-04T16:49:24.144Z,47.93
2023-02-04T16:52:10.051Z,47.63
2023-02-04T16:54:55.957Z,48.02
2023-02-04T16:57:43.236Z,47.79
2023-02-04T17:00:29.218Z,48.12
2023-02-04T17:03:15.606Z,48.29
2023-02-04T17:06:02.245Z,48.48
2023-02-04T17:08:48.228Z,48.66
2023-02-04T17:11:34.139Z,48.63
2023-02-04T17:14:22.465Z,47.84
2023-02-04T17:17:09.546Z,48.80
2023-02-04T17:19:55.882Z,49.44
2023-02-04T17:22:41.822Z,48.48
2023-02-04T17:25:27.673Z,49.40
2023-02-04T17:28:13.538Z,48.60
2023-02-04T17:30:59.202Z,48.74
2023-02-04T17:33:45.867Z,48.57
2023-02-04T17:36:32.572Z,49.12
2023-02-04T17:39:18.486Z,49.01
2023-02-04T17:42:04.215Z,48.87
2023-02-04T17:44:50.255Z,49.34
2023-02-04T17:47:40.005Z,49.35
2023-02-04T17:50:26.042Z,49.15
2023-02-04T17:53:12.223Z,49.29
2023-02-04T17:55:58.404Z,49.21
2023-02-04T17:58:45.893Z,48.81
2023-02-04T18:01:32.180Z,48.58
2023-02-04T18:04:18.619Z,49.03
2023-02-04T18:07:08.812Z,48.04
2023-02-04T18:10:22.191Z,48.13
2023-02-04T18:13:22.854Z,48.28
2023-02-04T19:00:18.063Z,52.45
2023-02-04T19:03:21.297Z,51.32
2023-02-04T19:06:33.472Z,51.24
2023-02-04T19:09:25.404Z,50.54
2023-02-04T19:12:22.135Z,49.77
2023-02-04T19:15:16.667Z,49.84
2023-02-04T19:18:16.868Z,49.77
2023-02-04T19:21:28.809Z,49.74
2023-02-04T19:24:21.591Z,49.78
2023-02-04T19:27:22.819Z,49.17
2023-02-04T19:30:27.675Z,49.39
2023-02-04T19:33:21.164Z,49.34
2023-02-04T19:36:39.922Z,49.28
2023-02-04T19:39:33.948Z,49.41
2023-02-04T19:42:30.168Z,48.86
2023-02-04T19:45:25.509Z,48.81
2023-02-04T19:48:34.730Z,48.43
2023-02-04T19:51:26.126Z,48.86
2023-02-04T19:54:23.175Z,48.34
2023-02-04T19:57:21.137Z,47.95
2023-02-04T20:00:28.643Z,47.83
2023-02-04T20:03:45.246Z,47.88
2023-02-04T20:06:37.577Z,47.98
2023-02-04T20:09:25.342Z,47.80
2023-02-04T20:12:18.509Z,47.30
2023-02-04T21:24:50.610Z,47.63
